Weather at Hato El Caimán Airport

Public forecast

Using degrees Celsius for public forecast. Weather courtesy of forecast.io.

Closest aviation weather report (METAR) to Hato El Caimán Airport

Closest report is Guanare Airport, 9.1 nm (16.9 km) WSW.

2024/07/22 09:03 (retrieved 58 minutes ago)

SVGU 220903Z AUTO ///01KT NCD ///// Q1014

Closest aviation forecast (TAF) to Hato El Caimán Airport

Forecast is more than 12 hours old.

Closest forecast is Arturo Michelena International Airport, 118.3 nm (219.1 km) ENE.

2024/07/21 12:09 (retrieved 22 hours ago)

TAF SVVA 211000Z 2112/2212 11004KT 9999 BKN016 TX31/2118 TN21/2209 TEMPO 2116/2120 02002KT 9999 BKN016 TEMPO 2123/2203 07005KT 9999 BKN016